Time;durP1;ratioP1;P1;durP2;ratioP2;P2;SDS_P1;SDS_P2;PMS_P1;PMS_P2;Temp;Humidity;BMP_temperature;BMP_pressure;BME280_temperature;BME280_humidity;BME280_pressure;Samples;Min_cycle;Max_cycle;Signal;HPM_P1;HPM_P2
2021/01/29 00:01:31;;;;;;;1.25;0.65;;;;;;;;;;5052588;28;20020;-57
2021/01/29 00:04:01;;;;;;;1.63;0.85;;;;;;;;;;5051549;28;20021;-57
2021/01/29 00:06:56;;;;;;;2.05;0.55;;;;;;;;;;5051528;28;20033;-56
2021/01/29 00:09:34;;;;;;;1.17;0.50;;;;;;;;;;5136242;27;20482;-56
2021/01/29 00:12:12;;;;;;;0.47;0.30;;;;;;;;;;5051533;28;20025;-55
2021/01/29 00:14:44;;;;;;;2.33;0.88;;;;;;;;;;5033618;28;20033;-57
2021/01/29 00:17:25;;;;;;;0.68;0.30;;;;;;;;;;5034591;28;20053;-56
2021/01/29 00:19:56;;;;;;;1.42;0.50;;;;;;;;;;5051685;28;20022;-56
2021/01/29 00:22:26;;;;;;;0.95;0.28;;;;;;;;;;5033965;28;20477;-57
2021/01/29 00:25:23;;;;;;;0.65;0.40;;;;;;;;;;5051132;28;20044;-57
2021/01/29 00:27:58;;;;;;;1.30;0.68;;;;;;;;;;5051412;28;20056;-56
2021/01/29 00:30:36;;;;;;;1.58;0.75;;;;;;;;;;5035074;28;20025;-57
2021/01/29 00:33:15;;;;;;;0.95;0.65;;;;;;;;;;5033916;28;20365;-57
2021/01/29 00:35:50;;;;;;;1.70;0.50;;;;;;;;;;5052030;28;20025;-56
2021/01/29 00:38:19;;;;;;;0.20;0.10;;;;;;;;;;5034156;28;20447;-56
2021/01/29 00:41:05;;;;;;;1.25;0.45;;;;;;;;;;5051482;27;20423;-56
2021/01/29 00:43:34;;;;;;;1.42;0.65;;;;;;;;;;5052735;28;20218;-57
2021/01/29 00:48:55;;;;;;;0.90;0.60;;;;;;;;;;5050832;28;20041;-55
2021/01/29 00:51:22;;;;;;;1.35;0.43;;;;;;;;;;5052220;28;20363;-56
2021/01/29 00:53:54;;;;;;;1.02;0.45;;;;;;;;;;5051909;28;20025;-57
2021/01/29 00:56:26;;;;;;;0.82;0.35;;;;;;;;;;5033641;28;20025;-57
2021/01/29 00:59:09;;;;;;;0.30;0.10;;;;;;;;;;5033530;28;20057;-57
2021/01/29 01:01:41;;;;;;;1.27;0.50;;;;;;;;;;5051588;28;20035;-57
2021/01/29 01:04:45;;;;;;;0.35;0.20;;;;;;;;;;5050752;28;20051;-57
2021/01/29 01:07:20;;;;;;;0.95;0.50;;;;;;;;;;5071420;28;20091;-56
2021/01/29 01:09:56;;;;;;;1.15;0.50;;;;;;;;;;5053627;28;20036;-56
2021/01/29 01:12:29;;;;;;;2.30;0.82;;;;;;;;;;5051221;28;20028;-54
2021/01/29 01:14:58;;;;;;;1.80;1.05;;;;;;;;;;5032673;28;20051;-56
2021/01/29 01:17:25;;;;;;;1.50;0.98;;;;;;;;;;5050848;28;20027;-56
2021/01/29 01:20:12;;;;;;;1.30;0.50;;;;;;;;;;5050565;28;20029;-55
2021/01/29 01:22:54;;;;;;;0.93;0.73;;;;;;;;;;5050837;28;20388;-54
2021/01/29 01:25:26;;;;;;;0.63;0.30;;;;;;;;;;5051517;28;20120;-56
2021/01/29 01:27:56;;;;;;;0.98;0.50;;;;;;;;;;5049302;28;20052;-57
2021/01/29 01:30:36;;;;;;;3.97;0.75;;;;;;;;;;5050843;28;20029;-57
2021/01/29 01:33:10;;;;;;;0.73;0.30;;;;;;;;;;5050692;28;20077;-57
2021/01/29 01:35:46;;;;;;;0.82;0.32;;;;;;;;;;5033165;28;20024;-55
2021/01/29 01:41:42;;;;;;;2.47;0.75;;;;;;;;;;4988363;28;20085;-56
2021/01/29 01:44:30;;;;;;;1.63;0.70;;;;;;;;;;5029912;28;20029;-55
2021/01/29 01:47:03;;;;;;;0.90;0.47;;;;;;;;;;5030164;28;20087;-56
2021/01/29 01:49:58;;;;;;;;;;;;;;;;;;;;;
2021/01/29 01:52:59;;;;;;;1.92;0.70;;;;;;;;;;5030113;28;20031;-56
2021/01/29 01:55:55;;;;;;;1.23;0.47;;;;;;;;;;5050721;28;20036;-54
2021/01/29 01:58:25;;;;;;;0.85;0.40;;;;;;;;;;5029828;28;20021;-55
2021/01/29 02:01:01;;;;;;;0.70;0.40;;;;;;;;;;5033227;28;20108;-55
2021/01/29 02:03:37;;;;;;;0.60;0.30;;;;;;;;;;5034447;28;20052;-56
2021/01/29 02:06:17;;;;;;;0.98;0.38;;;;;;;;;;5033239;28;20117;-57
2021/01/29 02:09:07;;;;;;;0.90;0.35;;;;;;;;;;5033683;28;20033;-55
2021/01/29 02:12:02;;;;;;;0.50;0.20;;;;;;;;;;5033592;28;20036;-56
2021/01/29 02:14:34;;;;;;;0.57;0.28;;;;;;;;;;5034319;28;20029;-56
2021/01/29 02:17:16;;;;;;;0.68;0.38;;;;;;;;;;5034026;28;20375;-57
2021/01/29 02:20:01;;;;;;;0.73;0.32;;;;;;;;;;5030007;28;20393;-55
2021/01/29 02:22:38;;;;;;;2.33;0.38;;;;;;;;;;5033859;28;20049;-54
2021/01/29 02:25:34;;;;;;;0.82;0.35;;;;;;;;;;5033565;28;20048;-56
2021/01/29 02:28:12;;;;;;;1.25;0.40;;;;;;;;;;5033875;28;20029;-57
2021/01/29 02:33:43;;;;;;;0.40;0.30;;;;;;;;;;5004823;28;20025;-57
2021/01/29 02:36:12;;;;;;;0.45;0.20;;;;;;;;;;5033489;28;20390;-56
2021/01/29 02:38:57;;;;;;;0.52;0.30;;;;;;;;;;5032997;28;20061;-57
2021/01/29 02:42:00;;;;;;;0.95;0.47;;;;;;;;;;5031742;28;20261;-57
2021/01/29 02:44:47;;;;;;;1.00;0.43;;;;;;;;;;5030003;28;20064;-54
2021/01/29 02:50:36;;;;;;;0.60;0.28;;;;;;;;;;5030310;28;20090;-56
2021/01/29 02:53:19;;;;;;;0.50;0.20;;;;;;;;;;5033455;28;20034;-56
2021/01/29 02:56:17;;;;;;;0.80;0.40;;;;;;;;;;5031768;28;20030;-56
2021/01/29 02:59:05;;;;;;;4.15;1.90;;;;;;;;;;5033737;28;20029;-56
2021/01/29 03:01:56;;;;;;;4.13;2.33;;;;;;;;;;5031214;28;20091;-55
2021/01/29 03:04:27;;;;;;;2.95;1.60;;;;;;;;;;5033452;28;20408;-56
2021/01/29 03:07:18;;;;;;;4.22;3.08;;;;;;;;;;5031159;28;20463;-56
2021/01/29 03:10:01;;;;;;;2.42;1.38;;;;;;;;;;5032051;28;20395;-56
2021/01/29 03:12:33;;;;;;;1.40;0.80;;;;;;;;;;5032120;28;20021;-57
2021/01/29 03:21:41;;;;;;;0.40;0.17;;;;;;;;;;5034380;28;20036;-57
2021/01/29 03:24:29;;;;;;;0.55;0.25;;;;;;;;;;5034122;28;20030;-56
2021/01/29 03:27:04;;;;;;;0.55;0.30;;;;;;;;;;5032161;28;20482;-56
2021/01/29 03:29:55;;;;;;;0.55;0.20;;;;;;;;;;5031842;28;20378;-56
2021/01/29 03:32:25;;;;;;;0.75;0.30;;;;;;;;;;5032825;28;20063;-56
2021/01/29 03:35:26;;;;;;;0.70;0.20;;;;;;;;;;5032173;28;20026;-54
2021/01/29 03:38:02;;;;;;;1.15;0.45;;;;;;;;;;5053112;28;20059;-56
2021/01/29 03:40:45;;;;;;;1.20;0.47;;;;;;;;;;5039763;27;20410;-55
2021/01/29 03:43:51;;;;;;;0.40;0.20;;;;;;;;;;5052665;28;20086;-55
2021/01/29 03:46:16;;;;;;;1.60;0.47;;;;;;;;;;5047807;28;20421;-57
2021/01/29 03:48:47;;;;;;;0.32;0.20;;;;;;;;;;5052610;28;20029;-56
2021/01/29 03:51:34;;;;;;;0.70;0.30;;;;;;;;;;5052679;28;20412;-57
2021/01/29 03:54:19;;;;;;;0.70;0.20;;;;;;;;;;5052173;28;20036;-56
2021/01/29 03:57:04;;;;;;;0.70;0.30;;;;;;;;;;5052088;28;20033;-55
2021/01/29 04:00:00;;;;;;;0.43;0.20;;;;;;;;;;5052418;28;20371;-55
2021/01/29 04:02:51;;;;;;;0.60;0.32;;;;;;;;;;5069654;28;20032;-54
2021/01/29 04:05:37;;;;;;;0.73;0.33;;;;;;;;;;5033986;28;20068;-56
2021/01/29 04:08:24;;;;;;;0.20;0.10;;;;;;;;;;5055945;28;20677;-57
2021/01/29 04:10:58;;;;;;;5.35;0.40;;;;;;;;;;5051151;28;20366;-55
2021/01/29 04:13:45;;;;;;;1.35;0.52;;;;;;;;;;5051298;28;20438;-56
2021/01/29 04:16:20;;;;;;;2.60;0.40;;;;;;;;;;5055100;28;20061;-56
2021/01/29 04:19:01;;;;;;;0.40;0.28;;;;;;;;;;5034690;28;20025;-56
2021/01/29 04:21:55;;;;;;;2.42;0.30;;;;;;;;;;5051625;28;20136;-57
2021/01/29 04:24:44;;;;;;;1.05;0.50;;;;;;;;;;5050997;28;20041;-54
2021/01/29 04:27:27;;;;;;;0.30;0.10;;;;;;;;;;5052195;28;20041;-56
2021/01/29 04:30:05;;;;;;;0.68;0.20;;;;;;;;;;5036119;28;20367;-54
2021/01/29 04:35:53;;;;;;;0.47;0.20;;;;;;;;;;5042913;28;20436;-54
2021/01/29 04:38:48;;;;;;;0.32;0.10;;;;;;;;;;5033608;28;20029;-55
2021/01/29 04:41:23;;;;;;;0.82;0.50;;;;;;;;;;5050054;27;20082;-56
2021/01/29 04:44:03;;;;;;;2.25;1.02;;;;;;;;;;5051004;28;20033;-55
2021/01/29 04:47:00;;;;;;;1.75;0.60;;;;;;;;;;5033230;28;20029;-54
2021/01/29 04:49:36;;;;;;;2.40;1.40;;;;;;;;;;5051246;28;20111;-57
2021/01/29 04:52:24;;;;;;;1.95;1.20;;;;;;;;;;5051503;28;20022;-57
2021/01/29 04:55:15;;;;;;;0.55;0.38;;;;;;;;;;5051233;28;20021;-57
2021/01/29 04:57:59;;;;;;;0.40;0.20;;;;;;;;;;5051159;28;20477;-56
2021/01/29 05:00:51;;;;;;;1.27;0.28;;;;;;;;;;5050973;28;20352;-57
2021/01/29 05:03:42;;;;;;;0.30;0.10;;;;;;;;;;5051045;28;20040;-56
2021/01/29 05:06:16;;;;;;;0.55;0.30;;;;;;;;;;5033721;28;20041;-57
2021/01/29 05:09:01;;;;;;;0.30;0.20;;;;;;;;;;5051540;28;20438;-56
2021/01/29 05:11:55;;;;;;;5.63;0.30;;;;;;;;;;5051010;28;20021;-56
2021/01/29 05:14:47;;;;;;;0.95;0.25;;;;;;;;;;5050656;28;20060;-56
2021/01/29 05:17:32;;;;;;;0.35;0.20;;;;;;;;;;5050810;28;20109;-57
2021/01/29 05:20:17;;;;;;;0.50;0.20;;;;;;;;;;5050753;28;20017;-56
2021/01/29 05:23:02;;;;;;;0.95;0.25;;;;;;;;;;5050234;28;20025;-56
2021/01/29 05:25:54;;;;;;;0.65;0.28;;;;;;;;;;5032480;28;20025;-55
2021/01/29 05:28:45;;;;;;;0.20;0.10;;;;;;;;;;5051067;28;20025;-55
2021/01/29 05:31:34;;;;;;;0.25;0.20;;;;;;;;;;5050978;28;20025;-56
2021/01/29 05:34:28;;;;;;;0.10;0.10;;;;;;;;;;5049809;28;20062;-54
2021/01/29 05:40:16;;;;;;;0.22;0.10;;;;;;;;;;5050831;28;20106;-55
2021/01/29 05:43:04;;;;;;;0.20;0.10;;;;;;;;;;5032870;28;20043;-57
2021/01/29 05:45:49;;;;;;;0.15;0.10;;;;;;;;;;5032168;28;20029;-56
2021/01/29 05:51:28;;;;;;;1.25;0.32;;;;;;;;;;5050474;28;20029;-56
2021/01/29 05:54:13;;;;;;;0.60;0.10;;;;;;;;;;5050698;28;20340;-54
2021/01/29 05:57:05;;;;;;;0.20;0.03;;;;;;;;;;5032103;28;20057;-57
2021/01/29 05:59:37;;;;;;;0.32;0.10;;;;;;;;;;5050242;28;20052;-55
2021/01/29 06:02:23;;;;;;;1.27;0.10;;;;;;;;;;5050283;28;20021;-56
2021/01/29 06:05:07;;;;;;;0.28;0.10;;;;;;;;;;5050441;28;20021;-57
2021/01/29 06:07:45;;;;;;;0.17;0.10;;;;;;;;;;5050310;28;20462;-56
2021/01/29 06:10:33;;;;;;;0.77;0.30;;;;;;;;;;5047667;28;20037;-57
2021/01/29 06:13:20;;;;;;;0.50;0.10;;;;;;;;;;5032326;28;20029;-55
2021/01/29 06:16:08;;;;;;;0.45;0.13;;;;;;;;;;5049479;28;20458;-56
2021/01/29 06:18:34;;;;;;;0.25;0.15;;;;;;;;;;5031808;28;20534;-56
2021/01/29 06:24:22;;;;;;;0.47;0.20;;;;;;;;;;5049738;28;20101;-57
2021/01/29 06:27:12;;;;;;;0.20;0.10;;;;;;;;;;5089216;28;20474;-56
2021/01/29 06:30:05;;;;;;;0.47;0.20;;;;;;;;;;5050255;28;20362;-56
2021/01/29 06:33:04;;;;;;;0.60;0.20;;;;;;;;;;5047397;28;20040;-57
2021/01/29 06:35:39;;;;;;;0.73;0.30;;;;;;;;;;5032147;28;20038;-55
2021/01/29 06:38:32;;;;;;;0.30;0.20;;;;;;;;;;5049489;28;20029;-55
2021/01/29 06:41:17;;;;;;;0.20;0.10;;;;;;;;;;5027913;28;20124;-56
2021/01/29 06:44:14;;;;;;;0.30;0.13;;;;;;;;;;5030009;28;20026;-55
2021/01/29 06:47:03;;;;;;;0.20;0.17;;;;;;;;;;5015541;28;20147;-54
2021/01/29 06:49:54;;;;;;;0.10;0.10;;;;;;;;;;5033789;28;20443;-56
2021/01/29 06:52:47;;;;;;;0.17;0.07;;;;;;;;;;5032243;28;20070;-54
2021/01/29 06:55:34;;;;;;;0.10;0.10;;;;;;;;;;5034224;28;20283;-56
2021/01/29 06:58:15;;;;;;;0.35;0.17;;;;;;;;;;5032947;28;20022;-56
2021/01/29 07:01:06;;;;;;;0.40;0.10;;;;;;;;;;5033138;28;20128;-56
2021/01/29 07:03:51;;;;;;;0.30;0.10;;;;;;;;;;5031247;28;20034;-55
2021/01/29 07:06:34;;;;;;;0.30;0.10;;;;;;;;;;5033612;28;20439;-55
2021/01/29 07:09:11;;;;;;;0.35;0.25;;;;;;;;;;5032441;28;20032;-53
2021/01/29 07:11:58;;;;;;;1.73;0.25;;;;;;;;;;5032798;28;20025;-54
2021/01/29 07:14:56;;;;;;;0.30;0.13;;;;;;;;;;5031589;28;20108;-56
2021/01/29 07:17:47;;;;;;;2.40;0.60;;;;;;;;;;5033624;28;20082;-53
2021/01/29 07:20:32;;;;;;;0.65;0.28;;;;;;;;;;5030950;28;20037;-57
2021/01/29 07:23:11;;;;;;;0.00;0.00;;;;;;;;;;5033016;28;20341;-57
2021/01/29 07:25:58;;;;;;;0.60;0.05;;;;;;;;;;5033029;28;20030;-57
2021/01/29 07:28:49;;;;;;;0.10;0.10;;;;;;;;;;5031020;28;20046;-58
2021/01/29 07:31:46;;;;;;;0.20;0.10;;;;;;;;;;5033511;28;20494;-54
2021/01/29 07:34:38;;;;;;;0.70;0.30;;;;;;;;;;5033315;28;20034;-54
2021/01/29 07:37:34;;;;;;;0.85;0.20;;;;;;;;;;5032830;28;20026;-56
2021/01/29 07:40:19;;;;;;;0.45;0.20;;;;;;;;;;5029331;27;20121;-57
2021/01/29 07:43:04;;;;;;;1.00;0.10;;;;;;;;;;5012581;28;20038;-55
2021/01/29 07:45:58;;;;;;;0.85;0.38;;;;;;;;;;4997232;28;20129;-54
2021/01/29 07:48:43;;;;;;;0.38;0.17;;;;;;;;;;4994113;28;20064;-57
2021/01/29 07:51:28;;;;;;;0.40;0.17;;;;;;;;;;5011743;28;20129;-56
2021/01/29 07:54:20;;;;;;;0.20;0.10;;;;;;;;;;4995353;28;20033;-56
2021/01/29 07:57:15;;;;;;;0.43;0.22;;;;;;;;;;5012589;28;20372;-58
2021/01/29 08:00:10;;;;;;;;;;;;;;;;;;;;;
2021/01/29 08:03:21;;;;;;;0.17;0.00;;;;;;;;;;5012175;28;20052;-53
2021/01/29 08:06:00;;;;;;;0.20;0.10;;;;;;;;;;5001887;28;20112;-56
2021/01/29 08:08:29;;;;;;;0.30;0.10;;;;;;;;;;5011634;28;20475;-54
2021/01/29 08:11:06;;;;;;;0.40;0.15;;;;;;;;;;5011767;28;20475;-51
2021/01/29 08:13:35;;;;;;;0.05;0.00;;;;;;;;;;5012611;28;20022;-55
2021/01/29 08:16:19;;;;;;;0.65;0.08;;;;;;;;;;5012221;28;20068;-55
2021/01/29 08:19:07;;;;;;;0.55;0.17;;;;;;;;;;4994024;28;20029;-56
2021/01/29 08:22:06;;;;;;;1.58;0.47;;;;;;;;;;5010701;28;20387;-56
2021/01/29 08:27:41;;;;;;;0.38;0.22;;;;;;;;;;5007758;28;20034;-54
2021/01/29 08:30:29;;;;;;;0.20;0.03;;;;;;;;;;5011444;28;20104;-53
2021/01/29 08:33:16;;;;;;;0.63;0.22;;;;;;;;;;5012375;28;20079;-53
2021/01/29 08:35:58;;;;;;;0.68;0.20;;;;;;;;;;4993677;28;20026;-56
2021/01/29 08:38:38;;;;;;;0.00;0.00;;;;;;;;;;5011324;28;20055;-56
2021/01/29 08:41:26;;;;;;;0.10;0.10;;;;;;;;;;5018318;28;20053;-56
2021/01/29 08:44:16;;;;;;;0.20;0.10;;;;;;;;;;5031005;28;20432;-52
2021/01/29 08:47:18;;;;;;;0.10;0.00;;;;;;;;;;5031770;28;20091;-53
2021/01/29 08:50:07;;;;;;;0.32;0.20;;;;;;;;;;5033242;28;20025;-52
2021/01/29 08:52:38;;;;;;;0.75;0.40;;;;;;;;;;5031991;28;20033;-55
2021/01/29 08:55:26;;;;;;;0.77;0.32;;;;;;;;;;5031895;28;20088;-56
2021/01/29 08:58:20;;;;;;;3.58;0.57;;;;;;;;;;5031467;28;20028;-52
2021/01/29 09:01:18;;;;;;;2.58;0.70;;;;;;;;;;5051080;28;20407;-55
2021/01/29 09:04:04;;;;;;;;;;;;;;;;;;;;;
2021/01/29 09:06:41;;;;;;;0.50;0.20;;;;;;;;;;5051976;28;20382;-56
2021/01/29 09:09:11;;;;;;;0.20;0.10;;;;;;;;;;5050657;28;20381;-56
2021/01/29 09:11:53;;;;;;;0.77;0.20;;;;;;;;;;5051247;28;20407;-56
2021/01/29 09:14:58;;;;;;;1.33;0.20;;;;;;;;;;5050794;28;20098;-55
2021/01/29 09:17:35;;;;;;;0.10;0.00;;;;;;;;;;5071310;28;20020;-51
2021/01/29 09:20:05;;;;;;;0.28;0.00;;;;;;;;;;5052871;28;20029;-56
2021/01/29 09:22:50;;;;;;;0.80;0.47;;;;;;;;;;5058518;28;20111;-52
2021/01/29 09:25:45;;;;;;;4.28;0.80;;;;;;;;;;5050257;28;20443;-53
2021/01/29 09:28:23;;;;;;;0.75;0.10;;;;;;;;;;5122249;27;20510;-56
2021/01/29 09:31:25;;;;;;;0.73;0.20;;;;;;;;;;5050775;28;20113;-54
2021/01/29 09:34:14;;;;;;;0.32;0.20;;;;;;;;;;5032576;28;20032;-56
2021/01/29 09:37:00;;;;;;;0.30;0.25;;;;;;;;;;5032362;28;20462;-53
2021/01/29 09:39:30;;;;;;;2.22;0.30;;;;;;;;;;5050937;28;20100;-56
2021/01/29 09:42:31;;;;;;;0.88;0.20;;;;;;;;;;5128562;27;20049;-54
2021/01/29 09:44:58;;;;;;;;;;;;;;;;;;5061459;28;20368;-56
2021/01/29 09:47:47;;;;;;;0.65;0.20;;;;;;;;;;5050627;28;19996;-55
2021/01/29 09:50:38;;;;;;;0.50;0.13;;;;;;;;;;5050563;28;20378;-54
2021/01/29 09:53:07;;;;;;;1.83;0.43;;;;;;;;;;5049106;28;20041;-55
2021/01/29 09:55:48;;;;;;;1.52;0.52;;;;;;;;;;5050483;28;20036;-55
2021/01/29 09:58:36;;;;;;;0.98;0.57;;;;;;;;;;5050278;28;20028;-52
2021/01/29 10:01:14;;;;;;;0.88;0.32;;;;;;;;;;5048960;28;20029;-54
2021/01/29 10:04:01;;;;;;;1.38;0.45;;;;;;;;;;5050574;28;20419;-53
2021/01/29 10:06:53;;;;;;;0.32;0.20;;;;;;;;;;5049907;28;20076;-56
2021/01/29 10:09:34;;;;;;;1.08;0.40;;;;;;;;;;5050112;28;20113;-56
2021/01/29 10:12:13;;;;;;;2.58;1.13;;;;;;;;;;5135936;27;20075;-55
2021/01/29 10:15:05;;;;;;;1.02;0.57;;;;;;;;;;5050566;28;20032;-56
2021/01/29 10:17:55;;;;;;;1.13;0.40;;;;;;;;;;5049952;28;20054;-56
2021/01/29 10:20:35;;;;;;;0.57;0.37;;;;;;;;;;5051749;28;20037;-54
2021/01/29 10:23:24;;;;;;;1.00;0.57;;;;;;;;;;5034946;28;20029;-52
2021/01/29 10:26:09;;;;;;;1.77;0.85;;;;;;;;;;5052604;28;20062;-53
2021/01/29 10:28:53;;;;;;;2.13;0.80;;;;;;;;;;5054284;28;20116;-54
2021/01/29 10:31:31;;;;;;;0.50;0.20;;;;;;;;;;5053663;28;20060;-50
2021/01/29 10:34:17;;;;;;;1.85;0.35;;;;;;;;;;5035275;28;20115;-55
2021/01/29 10:36:47;;;;;;;2.00;0.65;;;;;;;;;;5073985;28;20037;-55
2021/01/29 10:39:18;;;;;;;3.17;0.85;;;;;;;;;;5038065;28;20064;-56
2021/01/29 10:42:02;;;;;;;2.28;0.98;;;;;;;;;;5053085;27;20137;-55
2021/01/29 10:47:47;;;;;;;0.95;0.43;;;;;;;;;;5039801;28;20029;-56
2021/01/29 10:50:22;;;;;;;1.83;0.60;;;;;;;;;;5053892;28;20029;-54
2021/01/29 10:53:25;;;;;;;1.48;0.28;;;;;;;;;;5053584;28;20025;-55
2021/01/29 10:55:51;;;;;;;2.72;0.55;;;;;;;;;;5052166;28;20056;-53
2021/01/29 10:58:36;;;;;;;1.90;0.73;;;;;;;;;;5052556;28;20017;-53
2021/01/29 11:01:06;;;;;;;3.80;0.63;;;;;;;;;;5053043;28;20064;-55
2021/01/29 11:03:51;;;;;;;4.18;1.02;;;;;;;;;;5053218;28;20029;-54
2021/01/29 11:06:27;;;;;;;3.50;1.00;;;;;;;;;;5053689;28;20033;-55
2021/01/29 11:09:02;;;;;;;2.78;1.25;;;;;;;;;;5053450;28;20056;-54
2021/01/29 11:12:00;;;;;;;3.95;0.63;;;;;;;;;;5053319;28;20069;-57
2021/01/29 11:14:38;;;;;;;2.22;0.70;;;;;;;;;;5052949;28;20055;-56
2021/01/29 11:17:18;;;;;;;1.98;1.30;;;;;;;;;;5035506;28;20474;-56
2021/01/29 11:19:56;;;;;;;3.90;0.73;;;;;;;;;;5035636;28;20399;-54
2021/01/29 11:22:38;;;;;;;2.15;0.88;;;;;;;;;;5052685;28;20018;-54
2021/01/29 11:25:04;;;;;;;3.53;1.20;;;;;;;;;;5051727;28;20025;-56
2021/01/29 11:27:51;;;;;;;2.45;0.98;;;;;;;;;;5052456;28;20025;-55
2021/01/29 11:30:30;;;;;;;6.13;1.48;;;;;;;;;;5052901;28;20078;-53
2021/01/29 11:36:18;;;;;;;3.35;1.05;;;;;;;;;;5052662;28;20041;-53
2021/01/29 11:38:58;;;;;;;3.63;1.08;;;;;;;;;;5052469;28;20025;-50
2021/01/29 11:41:35;;;;;;;3.13;0.90;;;;;;;;;;5051787;27;20475;-51
2021/01/29 11:44:04;;;;;;;3.33;1.33;;;;;;;;;;5035007;28;20044;-51
2021/01/29 11:47:10;;;;;;;4.50;1.48;;;;;;;;;;5052014;28;20112;-51
2021/01/29 11:49:56;;;;;;;6.20;1.60;;;;;;;;;;5052427;28;20044;-52
2021/01/29 11:52:54;;;;;;;2.40;0.85;;;;;;;;;;5053006;28;20474;-56
2021/01/29 11:55:24;;;;;;;1.75;0.90;;;;;;;;;;5037295;28;20063;-53
2021/01/29 11:58:12;;;;;;;5.72;1.40;;;;;;;;;;5034190;28;20033;-54
2021/01/29 12:00:51;;;;;;;1.77;0.88;;;;;;;;;;5052177;28;20029;-51
2021/01/29 12:03:32;;;;;;;1.30;0.43;;;;;;;;;;5052078;28;20100;-53
2021/01/29 12:06:12;;;;;;;1.67;0.55;;;;;;;;;;5035044;28;20371;-53
2021/01/29 12:08:44;;;;;;;5.00;1.00;;;;;;;;;;5051884;28;20477;-55
2021/01/29 12:11:41;;;;;;;2.35;0.50;;;;;;;;;;5051541;28;20025;-57
2021/01/29 12:14:18;;;;;;;2.00;0.73;;;;;;;;;;5049526;28;20029;-57
2021/01/29 12:16:58;;;;;;;1.60;0.45;;;;;;;;;;5052608;28;20039;-56
2021/01/29 12:19:59;;;;;;;1.75;0.63;;;;;;;;;;5051909;28;20098;-55
2021/01/29 12:22:31;;;;;;;3.58;1.00;;;;;;;;;;5057114;28;20029;-55
2021/01/29 12:25:27;;;;;;;3.13;0.65;;;;;;;;;;5033671;28;20029;-56
2021/01/29 12:28:02;;;;;;;1.38;0.55;;;;;;;;;;5051927;28;20033;-56
2021/01/29 12:30:36;;;;;;;2.45;0.55;;;;;;;;;;5051786;28;20021;-57
2021/01/29 12:33:26;;;;;;;1.90;0.57;;;;;;;;;;5052011;28;20426;-55
2021/01/29 12:36:13;;;;;;;1.67;0.47;;;;;;;;;;5033599;28;20032;-50
2021/01/29 12:38:52;;;;;;;2.70;1.10;;;;;;;;;;5052410;28;20036;-56
2021/01/29 12:41:22;;;;;;;2.38;0.95;;;;;;;;;;5044533;27;20060;-57
2021/01/29 12:44:07;;;;;;;8.60;1.67;;;;;;;;;;5030665;28;20100;-53
2021/01/29 12:46:44;;;;;;;3.83;1.02;;;;;;;;;;5031291;28;20034;-55
2021/01/29 12:49:21;;;;;;;2.40;1.00;;;;;;;;;;5051649;28;20033;-55
2021/01/29 12:51:51;;;;;;;3.25;1.00;;;;;;;;;;5051105;28;20470;-55
2021/01/29 12:54:35;;;;;;;1.23;0.57;;;;;;;;;;5050933;28;20385;-55
2021/01/29 12:57:23;;;;;;;2.50;0.88;;;;;;;;;;5033920;28;20478;-57
2021/01/29 13:00:00;;;;;;;1.63;0.60;;;;;;;;;;5051920;28;20032;-57
2021/01/29 13:02:39;;;;;;;1.95;0.95;;;;;;;;;;5051183;28;20017;-55
2021/01/29 13:05:15;;;;;;;6.70;1.00;;;;;;;;;;5050867;28;20065;-56
2021/01/29 13:08:11;;;;;;;3.72;1.15;;;;;;;;;;5050694;28;20082;-57
2021/01/29 13:10:43;;;;;;;1.17;0.65;;;;;;;;;;5137091;27;20470;-58
2021/01/29 13:13:21;;;;;;;1.80;0.70;;;;;;;;;;5032895;28;20128;-56
2021/01/29 13:18:54;;;;;;;1.30;0.50;;;;;;;;;;5051287;28;20025;-57
2021/01/29 13:21:31;;;;;;;0.65;0.30;;;;;;;;;;5032700;28;20044;-57
2021/01/29 13:24:18;;;;;;;0.45;0.20;;;;;;;;;;5050828;28;20358;-58
2021/01/29 13:27:01;;;;;;;0.77;0.22;;;;;;;;;;5050919;28;20033;-57
2021/01/29 13:29:28;;;;;;;1.02;0.47;;;;;;;;;;5033056;28;20029;-57
2021/01/29 13:32:15;;;;;;;1.05;0.28;;;;;;;;;;5050810;28;20024;-53
2021/01/29 13:34:51;;;;;;;0.82;0.20;;;;;;;;;;5050391;28;20040;-57
2021/01/29 13:37:25;;;;;;;0.10;0.00;;;;;;;;;;5033673;28;20124;-59
2021/01/29 13:40:04;;;;;;;0.90;0.20;;;;;;;;;;5050844;28;20031;-58
2021/01/29 13:42:37;;;;;;;0.17;0.05;;;;;;;;;;5049105;27;20118;-57
2021/01/29 13:45:22;;;;;;;0.10;0.00;;;;;;;;;;5034125;28;20033;-56
2021/01/29 13:48:03;;;;;;;0.10;0.05;;;;;;;;;;5032465;28;20087;-53
2021/01/29 13:50:48;;;;;;;2.53;0.20;;;;;;;;;;5050242;28;20161;-57
2021/01/29 13:53:38;;;;;;;0.38;0.20;;;;;;;;;;5049347;28;20513;-55
2021/01/29 13:56:26;;;;;;;0.90;0.40;;;;;;;;;;5049873;28;20029;-56
2021/01/29 13:59:15;;;;;;;0.80;0.30;;;;;;;;;;5050290;28;20040;-57
2021/01/29 14:04:57;;;;;;;0.93;0.17;;;;;;;;;;5050737;28;20033;-57
2021/01/29 14:07:28;;;;;;;1.23;0.22;;;;;;;;;;5032090;28;20036;-56
2021/01/29 14:10:00;;;;;;;0.88;0.47;;;;;;;;;;5049873;28;20036;-55
2021/01/29 14:12:53;;;;;;;1.00;0.25;;;;;;;;;;5118733;27;20033;-57
2021/01/29 14:15:40;;;;;;;1.15;0.80;;;;;;;;;;5050491;28;20028;-57
2021/01/29 14:21:28;;;;;;;0.30;0.10;;;;;;;;;;5049726;28;20097;-57
2021/01/29 14:24:12;;;;;;;1.13;0.35;;;;;;;;;;5050003;28;20058;-56
2021/01/29 14:26:44;;;;;;;2.33;0.50;;;;;;;;;;5049881;28;20426;-57
2021/01/29 14:29:20;;;;;;;2.10;0.30;;;;;;;;;;5050451;28;20059;-56
2021/01/29 14:32:23;;;;;;;4.13;0.82;;;;;;;;;;5050414;28;20116;-55
2021/01/29 14:35:21;;;;;;;0.55;0.25;;;;;;;;;;5049968;28;20029;-54
2021/01/29 14:38:03;;;;;;;2.08;0.50;;;;;;;;;;5091425;27;20033;-57
2021/01/29 14:40:41;;;;;;;0.88;0.43;;;;;;;;;;5049445;28;20459;-53
2021/01/29 14:43:33;;;;;;;4.53;0.80;;;;;;;;;;5049251;27;20064;-57
2021/01/29 14:46:00;;;;;;;0.88;0.25;;;;;;;;;;5049532;28;20028;-58
2021/01/29 14:48:46;;;;;;;0.47;0.20;;;;;;;;;;5049132;28;20037;-58
2021/01/29 14:51:31;;;;;;;2.08;0.63;;;;;;;;;;5121047;27;20025;-57
2021/01/29 14:54:06;;;;;;;0.30;0.20;;;;;;;;;;5049323;28;20052;-58
2021/01/29 14:56:48;;;;;;;2.00;0.65;;;;;;;;;;5049781;28;20037;-58
2021/01/29 14:59:39;;;;;;;3.65;0.20;;;;;;;;;;5031456;28;20054;-58
2021/01/29 15:02:24;;;;;;;0.43;0.20;;;;;;;;;;5049432;28;20420;-58
2021/01/29 15:04:59;;;;;;;0.15;0.03;;;;;;;;;;5048953;28;20022;-58
2021/01/29 15:07:54;;;;;;;0.52;0.20;;;;;;;;;;5050356;28;20029;-58
2021/01/29 15:10:27;;;;;;;0.60;0.17;;;;;;;;;;5057822;28;20120;-58
2021/01/29 15:13:09;;;;;;;;;;;;;;;;;;;;;
2021/01/29 15:15:40;;;;;;;3.13;0.35;;;;;;;;;;5052622;28;20374;-58
2021/01/29 15:18:12;;;;;;;0.60;0.10;;;;;;;;;;5052724;28;20044;-56
2021/01/29 15:20:48;;;;;;;0.00;0.00;;;;;;;;;;5035226;28;20022;-57
2021/01/29 15:23:22;;;;;;;3.20;0.70;;;;;;;;;;5052277;28;20036;-57
2021/01/29 15:25:57;;;;;;;1.45;0.60;;;;;;;;;;5050638;28;20044;-56
2021/01/29 15:28:35;;;;;;;0.47;0.10;;;;;;;;;;5052690;28;20390;-58
2021/01/29 15:31:32;;;;;;;2.50;1.13;;;;;;;;;;5052974;28;20103;-57
2021/01/29 15:34:08;;;;;;;1.92;0.32;;;;;;;;;;5053773;28;20066;-57
2021/01/29 15:37:10;;;;;;;1.13;0.38;;;;;;;;;;5052896;28;20033;-57
2021/01/29 15:39:48;;;;;;;1.55;0.20;;;;;;;;;;5034813;28;20373;-58
2021/01/29 15:42:37;;;;;;;0.98;0.32;;;;;;;;;;5051635;28;20052;-59
2021/01/29 15:45:07;;;;;;;1.50;0.40;;;;;;;;;;5052359;28;20056;-58
2021/01/29 15:47:53;;;;;;;2.90;0.85;;;;;;;;;;5035980;28;20044;-58
2021/01/29 15:50:38;;;;;;;0.15;0.05;;;;;;;;;;5052619;28;20027;-58
2021/01/29 15:53:34;;;;;;;0.17;0.08;;;;;;;;;;5033837;28;20474;-59
2021/01/29 15:56:23;;;;;;;1.17;0.20;;;;;;;;;;5108534;27;20045;-57
2021/01/29 15:58:54;;;;;;;1.85;0.10;;;;;;;;;;5051932;28;20061;-58
2021/01/29 16:01:39;;;;;;;3.38;0.73;;;;;;;;;;5052199;28;20412;-58
2021/01/29 16:04:14;;;;;;;0.55;0.25;;;;;;;;;;5033460;28;20389;-59
2021/01/29 16:06:46;;;;;;;0.43;0.20;;;;;;;;;;5033993;28;20033;-59
2021/01/29 16:09:28;;;;;;;2.25;0.52;;;;;;;;;;5051662;28;20125;-58
2021/01/29 16:11:55;;;;;;;0.80;0.32;;;;;;;;;;5052361;28;20036;-59
2021/01/29 16:14:27;;;;;;;1.33;0.63;;;;;;;;;;5051383;28;20101;-59
2021/01/29 16:17:22;;;;;;;0.85;0.40;;;;;;;;;;5052375;28;20036;-59
2021/01/29 16:20:08;;;;;;;0.38;0.15;;;;;;;;;;5052225;28;20386;-56
2021/01/29 16:22:41;;;;;;;1.33;0.28;;;;;;;;;;5051949;28;20017;-56
2021/01/29 16:25:20;;;;;;;2.17;0.35;;;;;;;;;;5051687;28;20021;-59
2021/01/29 16:28:11;;;;;;;0.22;0.10;;;;;;;;;;5052349;28;20057;-58
2021/01/29 16:30:38;;;;;;;0.47;0.20;;;;;;;;;;5051833;28;20036;-58
2021/01/29 16:33:36;;;;;;;0.68;0.20;;;;;;;;;;5052074;28;20404;-57
2021/01/29 16:36:21;;;;;;;1.33;0.57;;;;;;;;;;5068805;28;20149;-57
2021/01/29 16:39:06;;;;;;;;;;;;;;;;;;;;;
2021/01/29 16:41:46;;;;;;;1.73;0.52;;;;;;;;;;5055502;27;20047;-58
2021/01/29 16:44:39;;;;;;;1.42;0.57;;;;;;;;;;5051462;28;20067;-59
2021/01/29 16:47:31;;;;;;;0.70;0.25;;;;;;;;;;5051584;28;20025;-58
2021/01/29 16:50:16;;;;;;;1.02;0.93;;;;;;;;;;5051460;28;20033;-58
2021/01/29 16:52:56;;;;;;;1.63;0.70;;;;;;;;;;5033535;28;20451;-58
2021/01/29 16:55:30;;;;;;;0.97;0.33;;;;;;;;;;5033850;28;20029;-59
2021/01/29 16:57:58;;;;;;;1.25;0.60;;;;;;;;;;5052167;28;20088;-58
2021/01/29 17:00:37;;;;;;;1.73;0.40;;;;;;;;;;5051249;28;20145;-59
2021/01/29 17:03:09;;;;;;;0.57;0.20;;;;;;;;;;5033454;28;20021;-59
2021/01/29 17:05:37;;;;;;;2.25;0.57;;;;;;;;;;5051126;28;20035;-59
2021/01/29 17:08:22;;;;;;;0.85;0.43;;;;;;;;;;5051205;28;20033;-58
2021/01/29 17:11:20;;;;;;;;;;;;;;;;;;;;;